createdAt,value
2022-12-19T00:00:28.941Z,2.20
2022-12-19T00:02:56.633Z,2.20
2022-12-19T00:05:24.668Z,2.20
2022-12-19T00:07:53.729Z,2.10
2022-12-19T00:10:22.279Z,2.10
2022-12-19T00:12:51.669Z,2.10
2022-12-19T00:15:19.301Z,2.10
2022-12-19T00:17:46.950Z,2.10
2022-12-19T00:20:15.328Z,2.00
2022-12-19T00:22:46.876Z,2.00
2022-12-19T00:25:14.495Z,2.00
2022-12-19T00:27:42.049Z,2.00
2022-12-19T00:30:10.836Z,2.00
2022-12-19T00:32:38.561Z,2.00
2022-12-19T00:35:06.649Z,2.00
2022-12-19T00:37:34.344Z,2.00
2022-12-19T00:40:02.686Z,2.00
2022-12-19T00:42:31.620Z,2.00
2022-12-19T00:44:59.373Z,2.00
2022-12-19T00:47:27.145Z,1.90
2022-12-19T00:49:55.464Z,1.90
2022-12-19T00:52:23.169Z,1.90
2022-12-19T00:54:51.312Z,1.90
2022-12-19T00:57:19.092Z,1.90
2022-12-19T00:59:46.063Z,2.00
2022-12-19T01:02:14.567Z,2.00
2022-12-19T01:04:43.108Z,2.00
2022-12-19T01:07:10.876Z,2.00
2022-12-19T01:09:39.377Z,2.00
2022-12-19T01:12:25.845Z,1.90
2022-12-19T01:15:02.888Z,2.00
2022-12-19T01:17:44.445Z,1.90
2022-12-19T01:20:21.400Z,2.00
2022-12-19T01:23:00.000Z,2.00
2022-12-19T01:25:27.303Z,2.00
2022-12-19T01:27:55.995Z,2.00
2022-12-19T01:30:23.698Z,2.00
2022-12-19T01:32:52.236Z,2.00
2022-12-19T01:35:21.333Z,2.00
2022-12-19T01:37:49.811Z,2.00
2022-12-19T01:40:18.852Z,2.00
2022-12-19T01:42:48.063Z,2.00
2022-12-19T01:45:16.314Z,2.00
2022-12-19T01:48:13.811Z,2.00
2022-12-19T01:51:01.471Z,2.00
2022-12-19T01:53:49.147Z,2.00
2022-12-19T01:56:32.738Z,2.00
2022-12-19T01:59:05.767Z,2.00
2022-12-19T02:01:35.192Z,1.90
2022-12-19T02:04:06.873Z,1.90
2022-12-19T02:06:35.610Z,1.90
2022-12-19T02:09:02.706Z,1.90
2022-12-19T02:11:33.022Z,1.90
2022-12-19T02:14:00.827Z,1.90
2022-12-19T02:16:39.377Z,1.90
2022-12-19T02:19:21.442Z,1.90
2022-12-19T02:22:17.444Z,1.80
2022-12-19T02:25:24.839Z,1.70
2022-12-19T02:28:07.856Z,1.70
2022-12-19T02:31:16.567Z,1.70
2022-12-19T02:33:57.375Z,1.60
2022-12-19T02:37:01.208Z,1.50
2022-12-19T02:40:06.907Z,1.50
2022-12-19T02:42:40.132Z,1.50
2022-12-19T02:45:11.029Z,1.50
2022-12-19T02:47:41.537Z,1.50
2022-12-19T02:50:09.617Z,1.50
2022-12-19T02:52:37.842Z,1.50
2022-12-19T02:55:15.142Z,1.50
2022-12-19T02:57:53.472Z,1.60
2022-12-19T03:00:25.553Z,1.50
2022-12-19T03:03:29.389Z,1.50
2022-12-19T03:06:16.292Z,1.60
2022-12-19T03:09:11.853Z,1.60
2022-12-19T03:11:42.881Z,1.60
2022-12-19T03:14:18.411Z,1.60
2022-12-19T03:16:45.987Z,1.60
2022-12-19T03:19:16.084Z,1.60
2022-12-19T03:21:49.541Z,1.50
2022-12-19T03:24:18.948Z,1.60
2022-12-19T03:26:52.662Z,1.70
2022-12-19T03:29:34.253Z,1.80
2022-12-19T03:32:07.532Z,1.70
2022-12-19T03:34:47.648Z,1.70
2022-12-19T03:37:20.439Z,1.70
2022-12-19T03:39:54.470Z,1.80
2022-12-19T03:42:45.567Z,1.70
2022-12-19T03:45:21.558Z,1.70
2022-12-19T03:47:58.289Z,1.80
2022-12-19T03:50:35.031Z,1.70
2022-12-19T03:53:34.966Z,1.70
2022-12-19T03:56:16.913Z,1.70
2022-12-19T03:58:51.905Z,1.80
2022-12-19T04:01:21.693Z,1.90
2022-12-19T04:03:51.759Z,1.90
2022-12-19T04:06:20.469Z,1.80
2022-12-19T04:08:50.237Z,1.90
2022-12-19T04:11:20.389Z,1.90
2022-12-19T04:13:56.340Z,1.90
2022-12-19T04:16:29.928Z,1.90
2022-12-19T04:19:04.001Z,1.90
2022-12-19T04:21:41.564Z,2.00
2022-12-19T04:24:24.091Z,2.00
2022-12-19T04:26:54.619Z,2.00
2022-12-19T04:29:22.616Z,2.10
2022-12-19T04:31:52.224Z,2.10
2022-12-19T04:34:21.218Z,2.10
2022-12-19T04:36:51.470Z,2.20
2022-12-19T04:39:19.989Z,2.20
2022-12-19T04:41:47.574Z,2.30
2022-12-19T04:44:16.129Z,2.30
2022-12-19T04:46:43.677Z,2.30
2022-12-19T04:49:11.418Z,2.30
2022-12-19T04:51:40.719Z,2.40
2022-12-19T04:54:09.795Z,2.40
2022-12-19T04:56:38.099Z,2.40
2022-12-19T04:59:05.796Z,2.50
2022-12-19T05:01:34.351Z,2.50
2022-12-19T05:04:04.922Z,2.50
2022-12-19T05:06:32.386Z,2.50
2022-12-19T05:09:00.056Z,2.50
2022-12-19T05:11:27.683Z,2.60
2022-12-19T05:13:56.007Z,2.60
2022-12-19T05:16:23.627Z,2.60
2022-12-19T05:18:50.558Z,2.70
2022-12-19T05:21:21.660Z,2.70
2022-12-19T05:23:50.120Z,2.70
2022-12-19T05:26:17.515Z,2.80
2022-12-19T05:28:45.938Z,2.80
2022-12-19T05:31:16.927Z,2.80
2022-12-19T05:33:45.704Z,2.90
2022-12-19T05:36:16.027Z,2.90
2022-12-19T05:38:44.550Z,2.90
2022-12-19T05:41:21.026Z,2.90
2022-12-19T05:43:54.745Z,2.90
2022-12-19T05:46:23.689Z,3.00
2022-12-19T05:48:53.989Z,2.90
2022-12-19T05:51:23.553Z,2.90
2022-12-19T05:53:51.871Z,3.00
2022-12-19T05:56:23.259Z,3.00
2022-12-19T05:58:51.008Z,3.00
2022-12-19T06:01:23.480Z,3.00
2022-12-19T06:03:52.671Z,3.00
2022-12-19T06:06:23.585Z,3.00
2022-12-19T06:08:57.187Z,3.00
2022-12-19T06:11:25.004Z,3.00
2022-12-19T06:13:53.297Z,3.00
2022-12-19T06:16:22.307Z,3.00
2022-12-19T06:18:50.669Z,3.00
2022-12-19T06:21:22.734Z,3.00
2022-12-19T06:23:51.105Z,3.00
2022-12-19T06:26:20.659Z,3.00
2022-12-19T06:28:49.425Z,3.00
2022-12-19T06:31:18.308Z,3.00
2022-12-19T06:33:45.305Z,3.00
2022-12-19T06:36:24.770Z,3.00
2022-12-19T06:38:52.542Z,3.00
2022-12-19T06:41:39.367Z,3.00
2022-12-19T06:44:09.425Z,3.00
2022-12-19T06:46:38.115Z,3.00
2022-12-19T06:49:08.661Z,3.00
2022-12-19T06:51:35.976Z,3.00
2022-12-19T06:54:04.168Z,3.00
2022-12-19T06:56:36.852Z,3.00
2022-12-19T06:59:05.682Z,3.00
2022-12-19T07:02:01.592Z,3.00
2022-12-19T07:04:49.009Z,3.00
2022-12-19T07:07:17.380Z,3.00
2022-12-19T07:09:45.790Z,3.10
2022-12-19T07:12:15.662Z,3.10
2022-12-19T07:14:47.743Z,3.10
2022-12-19T07:17:19.935Z,3.10
2022-12-19T07:19:53.490Z,3.10
2022-12-19T07:22:22.031Z,3.10
2022-12-19T07:24:52.300Z,3.10
2022-12-19T07:27:20.834Z,3.10
2022-12-19T07:29:49.576Z,3.10
2022-12-19T07:32:16.474Z,3.10
2022-12-19T07:34:44.726Z,3.10
2022-12-19T07:37:14.686Z,3.10
2022-12-19T07:39:43.082Z,3.10
2022-12-19T07:42:11.455Z,3.10
2022-12-19T07:44:40.060Z,3.10
2022-12-19T07:47:11.034Z,3.10
2022-12-19T07:49:38.736Z,3.10
2022-12-19T07:52:07.043Z,3.10
2022-12-19T07:54:35.575Z,3.10
2022-12-19T07:57:05.201Z,3.10
2022-12-19T07:59:35.735Z,3.10
2022-12-19T08:02:07.317Z,3.10
2022-12-19T08:04:35.966Z,3.10
2022-12-19T08:07:03.929Z,3.10
2022-12-19T08:09:32.559Z,3.10
2022-12-19T08:12:01.606Z,3.00
2022-12-19T08:14:30.001Z,3.10
2022-12-19T08:19:46.920Z,3.00
2022-12-19T08:22:15.376Z,3.00
2022-12-19T08:24:43.025Z,3.00
2022-12-19T08:27:12.271Z,3.00
2022-12-19T08:29:40.008Z,2.90
2022-12-19T08:32:09.348Z,2.90
2022-12-19T08:34:37.021Z,2.90
2022-12-19T08:37:04.634Z,2.90
2022-12-19T08:39:31.506Z,2.90
2022-12-19T08:41:58.466Z,2.90
2022-12-19T08:44:27.250Z,2.90
2022-12-19T08:46:55.526Z,2.80
2022-12-19T08:49:25.305Z,2.80
2022-12-19T08:51:53.554Z,2.80
2022-12-19T08:54:21.201Z,2.80
2022-12-19T08:56:49.639Z,2.80
2022-12-19T08:59:21.357Z,2.70
2022-12-19T09:02:01.540Z,2.70
2022-12-19T09:05:33.599Z,2.70
2022-12-19T09:07:17.813Z,2.70
2022-12-19T09:09:45.855Z,2.60
2022-12-19T09:12:16.091Z,2.60
2022-12-19T09:14:46.758Z,2.60
2022-12-19T09:17:15.238Z,2.60
2022-12-19T09:19:47.939Z,2.60
2022-12-19T09:22:16.951Z,2.60
2022-12-19T09:24:44.645Z,2.60
2022-12-19T09:27:13.483Z,2.60
2022-12-19T09:29:43.764Z,2.60
2022-12-19T09:32:10.791Z,2.60
2022-12-19T09:34:39.232Z,2.60
2022-12-19T09:37:17.144Z,2.60
2022-12-19T09:39:46.674Z,2.60
2022-12-19T09:42:15.112Z,2.60
2022-12-19T09:45:02.644Z,2.60
2022-12-19T09:47:33.317Z,2.60
2022-12-19T09:50:02.697Z,2.60
2022-12-19T09:52:43.495Z,2.60
2022-12-19T09:55:11.986Z,2.70
2022-12-19T09:58:06.205Z,2.70
2022-12-19T10:00:39.616Z,2.70
2022-12-19T10:03:14.236Z,2.70
2022-12-19T10:07:16.372Z,2.70
2022-12-19T10:09:20.170Z,2.70
2022-12-19T10:12:41.315Z,2.70
2022-12-19T10:14:55.038Z,2.70
2022-12-19T10:18:00.358Z,2.80
2022-12-19T10:20:35.580Z,2.80
2022-12-19T10:23:29.359Z,2.80
2022-12-19T10:26:03.611Z,2.70
2022-12-19T10:28:39.180Z,2.80
2022-12-19T10:31:17.014Z,2.70
2022-12-19T10:34:05.788Z,2.80
2022-12-19T10:37:23.773Z,2.80
2022-12-19T10:39:56.985Z,2.80
2022-12-19T10:42:46.206Z,2.90
2022-12-19T10:45:17.923Z,2.90
2022-12-19T10:47:55.940Z,2.90
2022-12-19T10:50:29.715Z,2.90
2022-12-19T10:53:10.370Z,2.90
2022-12-19T10:55:48.194Z,2.90
2022-12-19T10:58:20.455Z,2.90
2022-12-19T11:01:05.250Z,2.90
2022-12-19T11:03:34.654Z,2.90
2022-12-19T11:06:03.963Z,2.90
2022-12-19T11:08:33.287Z,3.00
2022-12-19T11:12:26.347Z,3.00
2022-12-19T11:17:09.120Z,3.00
2022-12-19T11:21:40.355Z,3.10
2022-12-19T11:29:25.414Z,3.10
2022-12-19T11:29:26.509Z,3.10
2022-12-19T11:30:46.252Z,3.20
2022-12-19T11:30:48.850Z,3.10
2022-12-19T11:34:25.530Z,3.30
2022-12-19T11:36:57.200Z,3.30
2022-12-19T11:39:40.657Z,3.30
2022-12-19T11:42:22.116Z,3.30
2022-12-19T11:45:15.998Z,3.30
2022-12-19T11:48:00.189Z,3.40
2022-12-19T11:50:43.586Z,3.40
2022-12-19T11:53:25.944Z,3.40
2022-12-19T11:56:17.002Z,3.50
2022-12-19T11:58:51.726Z,3.50
2022-12-19T12:01:46.537Z,3.50
2022-12-19T12:04:56.674Z,3.50
2022-12-19T12:07:48.002Z,3.60
2022-12-19T12:14:27.559Z,3.60
2022-12-19T12:23:05.743Z,3.60
2022-12-19T12:26:30.536Z,3.70
2022-12-19T12:31:22.596Z,3.70
2022-12-19T12:31:39.009Z,3.80
2022-12-19T12:31:46.195Z,3.80
2022-12-19T12:31:52.225Z,3.80
2022-12-19T12:35:33.126Z,3.80
2022-12-19T12:37:03.556Z,3.80
2022-12-19T12:38:27.019Z,3.90
2022-12-19T12:41:18.288Z,3.90
2022-12-19T12:44:10.938Z,3.90
2022-12-19T12:46:49.551Z,3.90
2022-12-19T12:49:36.296Z,3.90
2022-12-19T12:52:13.174Z,3.90
2022-12-19T12:54:45.459Z,3.90
2022-12-19T12:57:38.048Z,3.90
2022-12-19T13:00:15.816Z,3.90
2022-12-19T13:02:51.484Z,3.90
2022-12-19T13:05:22.721Z,3.90
2022-12-19T13:07:53.454Z,3.90
2022-12-19T13:10:26.169Z,3.90
2022-12-19T13:13:01.346Z,3.90
2022-12-19T13:15:28.969Z,3.90
2022-12-19T13:17:57.239Z,3.90
2022-12-19T13:20:28.703Z,4.00
2022-12-19T13:22:58.979Z,4.00
2022-12-19T13:25:27.325Z,4.00
2022-12-19T13:28:01.477Z,4.00
2022-12-19T13:30:52.221Z,4.00
2022-12-19T13:33:21.774Z,4.00
2022-12-19T13:39:01.731Z,4.00
2022-12-19T13:39:56.273Z,4.00
2022-12-19T13:42:00.939Z,4.00
2022-12-19T13:44:28.468Z,4.00
2022-12-19T13:46:56.668Z,4.00
2022-12-19T13:49:35.101Z,4.00
2022-12-19T13:52:04.804Z,4.00
2022-12-19T13:54:38.140Z,4.00
2022-12-19T13:57:22.338Z,4.00
2022-12-19T14:00:00.048Z,4.00
2022-12-19T14:02:43.699Z,4.00
2022-12-19T14:05:44.417Z,4.00
2022-12-19T14:08:21.019Z,4.00
2022-12-19T14:11:42.144Z,4.00
2022-12-19T14:14:27.502Z,4.00
2022-12-19T14:17:12.291Z,4.00
2022-12-19T14:19:43.446Z,4.00
2022-12-19T14:22:25.192Z,4.00
2022-12-19T14:25:27.126Z,4.00
2022-12-19T14:28:24.788Z,4.00
2022-12-19T14:30:43.877Z,4.00
2022-12-19T14:33:44.715Z,4.00
2022-12-19T14:36:14.769Z,4.00
2022-12-19T14:39:22.152Z,4.00
2022-12-19T14:42:02.415Z,4.00
2022-12-19T14:53:51.548Z,4.00
2022-12-19T14:54:08.026Z,4.00
2022-12-19T14:54:13.739Z,4.00
2022-12-19T14:54:40.046Z,4.00
2022-12-19T14:56:58.104Z,4.00
2022-12-19T14:59:27.364Z,4.00
2022-12-19T15:02:07.132Z,4.00
2022-12-19T15:04:54.656Z,4.00
2022-12-19T15:07:32.020Z,4.00
2022-12-19T15:11:04.632Z,4.00
2022-12-19T15:14:52.119Z,4.00
2022-12-19T15:16:30.382Z,4.00
2022-12-19T15:19:00.575Z,4.00
2022-12-19T15:21:30.929Z,4.00
2022-12-19T15:23:59.344Z,4.00
2022-12-19T15:26:32.457Z,4.00
2022-12-19T15:29:01.954Z,4.00
2022-12-19T15:31:40.729Z,4.00
2022-12-19T15:34:35.096Z,4.00
2022-12-19T15:37:04.078Z,4.10
2022-12-19T15:39:32.499Z,4.10
2022-12-19T15:42:01.980Z,4.10
2022-12-19T15:44:39.587Z,4.10
2022-12-19T15:47:33.015Z,4.10
2022-12-19T15:50:06.713Z,4.10
2022-12-19T15:52:33.664Z,4.10
2022-12-19T15:55:02.099Z,4.10
2022-12-19T15:57:30.345Z,4.10
2022-12-19T16:00:01.539Z,4.10
2022-12-19T16:03:04.497Z,4.10
2022-12-19T16:05:23.589Z,4.10
2022-12-19T16:07:52.125Z,4.10
2022-12-19T16:10:19.115Z,4.10
2022-12-19T16:12:51.875Z,4.10
2022-12-19T16:15:46.700Z,4.10
2022-12-19T16:18:15.924Z,4.10
2022-12-19T16:20:43.722Z,4.10
2022-12-19T16:23:12.152Z,4.10
2022-12-19T16:25:50.673Z,4.10
2022-12-19T16:28:18.345Z,4.10
2022-12-19T16:30:47.238Z,4.10
2022-12-19T16:33:21.759Z,4.10
2022-12-19T16:36:07.584Z,4.10
2022-12-19T16:38:36.823Z,4.10
2022-12-19T16:41:05.392Z,4.10
2022-12-19T16:43:37.899Z,4.10
2022-12-19T16:46:07.791Z,4.10
2022-12-19T16:48:38.001Z,4.10
2022-12-19T16:51:20.644Z,4.10
2022-12-19T16:53:50.661Z,4.10
2022-12-19T16:56:33.888Z,4.10
2022-12-19T16:59:08.526Z,4.10
2022-12-19T17:01:37.461Z,4.10
2022-12-19T17:04:05.880Z,4.10
2022-12-19T17:06:33.506Z,4.10
2022-12-19T17:09:01.867Z,4.10
2022-12-19T17:11:30.192Z,4.20
2022-12-19T17:14:08.470Z,4.20
2022-12-19T17:16:38.392Z,4.20
2022-12-19T17:19:05.806Z,4.20
2022-12-19T17:21:34.113Z,4.20
2022-12-19T17:24:05.511Z,4.20
2022-12-19T17:26:33.799Z,4.20
2022-12-19T17:29:02.124Z,4.20
2022-12-19T17:31:30.083Z,4.20
2022-12-19T17:33:58.801Z,4.20
2022-12-19T17:36:36.626Z,4.20
2022-12-19T17:39:19.931Z,4.20
2022-12-19T17:41:51.383Z,4.20
2022-12-19T17:44:20.723Z,4.20
2022-12-19T17:46:49.321Z,4.20
2022-12-19T17:49:23.775Z,4.20
2022-12-19T17:51:54.701Z,4.20
2022-12-19T17:54:24.263Z,4.20
2022-12-19T17:56:52.948Z,4.20
2022-12-19T17:59:21.256Z,4.20
2022-12-19T18:01:49.847Z,4.20
2022-12-19T18:04:21.171Z,4.20
2022-12-19T18:06:49.427Z,4.20
2022-12-19T18:09:20.391Z,4.20
2022-12-19T18:11:50.199Z,4.20
2022-12-19T18:14:19.613Z,4.20
2022-12-19T18:16:50.564Z,4.10
2022-12-19T18:19:20.304Z,4.20
2022-12-19T18:21:49.615Z,4.20
2022-12-19T18:24:17.735Z,4.20
2022-12-19T18:26:46.141Z,4.20
2022-12-19T18:29:14.937Z,4.20
2022-12-19T18:31:50.903Z,4.20
2022-12-19T18:34:23.543Z,4.20
2022-12-19T18:36:53.561Z,4.20
2022-12-19T18:39:24.876Z,4.20
2022-12-19T18:41:53.583Z,4.20
2022-12-19T18:44:23.262Z,4.20
2022-12-19T18:46:52.876Z,4.10
2022-12-19T18:49:22.926Z,4.20
2022-12-19T18:51:52.281Z,4.10
2022-12-19T18:54:22.647Z,4.20
2022-12-19T18:56:52.043Z,4.10
2022-12-19T18:59:21.207Z,4.10
2022-12-19T19:01:49.739Z,4.00
2022-12-19T19:04:18.889Z,4.00
2022-12-19T19:06:52.234Z,4.10
2022-12-19T19:09:21.627Z,4.10
2022-12-19T19:11:49.295Z,4.10
2022-12-19T19:14:17.938Z,4.10
2022-12-19T19:16:44.971Z,4.10
2022-12-19T19:19:17.681Z,4.10
2022-12-19T19:21:46.326Z,4.10
2022-12-19T19:24:17.180Z,4.10
2022-12-19T19:26:45.517Z,4.10
2022-12-19T19:29:14.932Z,4.10
2022-12-19T19:31:47.357Z,4.10
2022-12-19T19:34:27.201Z,4.10
2022-12-19T19:36:58.857Z,4.10
2022-12-19T19:39:32.988Z,4.10
2022-12-19T19:42:03.144Z,4.10
2022-12-19T19:44:32.437Z,4.10
2022-12-19T19:47:00.777Z,4.10
2022-12-19T19:49:30.278Z,4.10
2022-12-19T19:52:02.517Z,4.10
2022-12-19T19:54:31.348Z,4.10
2022-12-19T19:56:59.138Z,4.10
2022-12-19T19:59:30.812Z,4.10
2022-12-19T20:01:59.552Z,4.10
2022-12-19T20:04:28.200Z,4.10
2022-12-19T20:06:56.605Z,4.10
2022-12-19T20:09:24.895Z,4.10
2022-12-19T20:11:53.263Z,4.10
2022-12-19T20:14:20.824Z,4.20
2022-12-19T20:16:50.965Z,4.10
2022-12-19T20:19:19.314Z,4.20
2022-12-19T20:21:48.783Z,4.20
2022-12-19T20:24:17.855Z,4.20
2022-12-19T20:26:46.213Z,4.20
2022-12-19T20:29:14.716Z,4.10
2022-12-19T20:31:44.726Z,4.20
2022-12-19T20:34:13.887Z,4.10
2022-12-19T20:36:43.255Z,4.10
2022-12-19T20:39:11.566Z,4.10
2022-12-19T20:41:39.957Z,4.10
2022-12-19T20:44:09.503Z,4.10
2022-12-19T20:46:37.208Z,4.10
2022-12-19T20:49:05.582Z,4.20
2022-12-19T20:51:34.636Z,4.20
2022-12-19T20:54:04.692Z,4.20
2022-12-19T20:56:32.291Z,4.30
2022-12-19T20:59:00.825Z,4.30
2022-12-19T21:01:29.071Z,4.30
2022-12-19T21:03:57.152Z,4.30
2022-12-19T21:06:27.096Z,4.30
2022-12-19T21:08:56.854Z,4.30
2022-12-19T21:11:26.441Z,4.30
2022-12-19T21:13:54.253Z,4.30
2022-12-19T21:16:23.347Z,4.30
2022-12-19T21:18:51.935Z,4.30
2022-12-19T21:21:24.151Z,4.30
2022-12-19T21:23:54.338Z,4.30
2022-12-19T21:26:24.612Z,4.30
2022-12-19T21:28:54.423Z,4.30
2022-12-19T21:31:25.435Z,4.30
2022-12-19T21:34:01.221Z,4.30
2022-12-19T21:36:30.638Z,4.30
2022-12-19T21:39:00.063Z,4.30
2022-12-19T21:41:28.211Z,4.30
2022-12-19T21:43:56.618Z,4.30
2022-12-19T21:46:27.367Z,4.30
2022-12-19T21:48:55.944Z,4.30
2022-12-19T21:51:27.034Z,4.30
2022-12-19T21:53:56.936Z,4.30
2022-12-19T21:56:26.293Z,4.40
2022-12-19T21:58:59.263Z,4.40
2022-12-19T22:01:29.239Z,4.40
2022-12-19T22:04:06.747Z,4.40
2022-12-19T22:06:39.922Z,4.40
2022-12-19T22:09:13.839Z,4.40
2022-12-19T22:11:44.725Z,4.40
2022-12-19T22:14:15.139Z,4.40
2022-12-19T22:16:44.121Z,4.40
2022-12-19T22:19:15.539Z,4.40
2022-12-19T22:21:46.719Z,4.40
2022-12-19T22:24:16.282Z,4.40
2022-12-19T22:26:45.133Z,4.30
2022-12-19T22:29:17.461Z,4.40
2022-12-19T22:31:48.155Z,4.40
2022-12-19T22:34:21.370Z,4.40
2022-12-19T22:36:49.891Z,4.40
2022-12-19T22:39:20.357Z,4.30
2022-12-19T22:41:51.234Z,4.40
2022-12-19T22:44:22.190Z,4.40
2022-12-19T22:46:50.436Z,4.40
2022-12-19T22:49:19.330Z,4.40
2022-12-19T22:51:46.322Z,4.40
2022-12-19T22:54:14.252Z,4.40
2022-12-19T22:56:43.040Z,4.40
2022-12-19T22:59:12.636Z,4.40
2022-12-19T23:01:43.866Z,4.40
2022-12-19T23:04:15.035Z,4.40
2022-12-19T23:06:43.485Z,4.40
2022-12-19T23:09:16.066Z,4.40
2022-12-19T23:11:46.949Z,4.40
2022-12-19T23:14:16.251Z,4.40
2022-12-19T23:16:45.145Z,4.40
2022-12-19T23:19:15.650Z,4.40
2022-12-19T23:21:44.049Z,4.40
2022-12-19T23:24:12.841Z,4.40
2022-12-19T23:26:41.707Z,4.40
2022-12-19T23:29:12.112Z,4.40
2022-12-19T23:31:41.963Z,4.30
2022-12-19T23:34:11.303Z,4.40
2022-12-19T23:39:29.604Z,4.40
2022-12-19T23:41:57.886Z,4.30
2022-12-19T23:44:27.135Z,4.40
2022-12-19T23:47:02.673Z,4.40
2022-12-19T23:49:32.699Z,4.40
2022-12-19T23:52:00.556Z,4.40
2022-12-19T23:54:28.422Z,4.40
2022-12-19T23:56:56.804Z,4.40
2022-12-19T23:59:25.294Z,4.40
